createdAt,value
2023-05-20T00:27:16.041Z,100.00
2023-05-20T00:29:42.799Z,100.00
2023-05-20T00:32:10.025Z,100.00
2023-05-20T00:34:36.906Z,100.00
2023-05-20T00:37:03.794Z,100.00
2023-05-20T00:39:30.811Z,100.00
2023-05-20T00:42:00.704Z,100.00
2023-05-20T00:44:35.599Z,100.00
2023-05-20T00:47:13.643Z,100.00
2023-05-20T00:49:40.963Z,100.00
2023-05-20T00:52:08.523Z,100.00
2023-05-20T00:54:35.528Z,100.00
2023-05-20T00:57:03.438Z,100.00
2023-05-20T00:59:57.300Z,100.00
2023-05-20T01:02:36.257Z,100.00
2023-05-20T01:10:26.436Z,100.00
2023-05-20T01:12:58.583Z,100.00
2023-05-20T01:15:30.785Z,100.00
2023-05-20T01:18:02.261Z,100.00
2023-05-20T01:20:32.958Z,100.00
2023-05-20T01:22:59.919Z,100.00
2023-05-20T01:25:27.081Z,100.00
2023-05-20T01:27:57.941Z,100.00
2023-05-20T01:30:30.764Z,100.00
2023-05-20T01:33:02.828Z,100.00
2023-05-20T01:35:30.522Z,100.00
2023-05-20T01:38:01.471Z,100.00
2023-05-20T01:40:28.616Z,100.00
2023-05-20T01:42:58.242Z,100.00
2023-05-20T01:45:25.429Z,100.00
2023-05-20T01:47:53.010Z,100.00
2023-05-20T01:50:19.969Z,100.00
2023-05-20T01:53:16.893Z,100.00
2023-05-20T01:58:44.730Z,100.00
2023-05-20T02:01:11.557Z,100.00
2023-05-20T02:03:42.049Z,100.00
2023-05-20T02:06:08.719Z,100.00
2023-05-20T02:08:35.506Z,100.00
2023-05-20T02:11:02.332Z,100.00
2023-05-20T02:13:29.874Z,100.00
2023-05-20T02:15:56.613Z,100.00
2023-05-20T02:18:23.583Z,100.00
2023-05-20T02:20:50.755Z,100.00
2023-05-20T02:23:17.626Z,100.00
2023-05-20T02:25:44.703Z,100.00
2023-05-20T02:28:30.564Z,100.00
2023-05-20T02:30:58.394Z,100.00
2023-05-20T02:33:28.028Z,100.00
2023-05-20T02:36:36.114Z,100.00
2023-05-20T02:39:53.248Z,100.00
2023-05-20T02:42:41.069Z,100.00
2023-05-20T02:45:08.950Z,100.00
2023-05-20T02:47:36.089Z,100.00
2023-05-20T02:50:03.467Z,100.00
2023-05-20T02:52:37.464Z,100.00
2023-05-20T02:55:05.206Z,100.00
2023-05-20T02:57:34.855Z,100.00
2023-05-20T03:00:02.073Z,100.00
2023-05-20T03:02:29.056Z,100.00
2023-05-20T03:04:56.544Z,100.00
2023-05-20T03:07:25.162Z,100.00
2023-05-20T03:09:52.701Z,100.00
2023-05-20T03:12:19.622Z,100.00
2023-05-20T03:14:46.365Z,100.00
2023-05-20T03:17:13.240Z,100.00
2023-05-20T03:20:18.508Z,100.00
2023-05-20T03:26:20.388Z,100.00
2023-05-20T03:28:47.309Z,100.00
2023-05-20T03:31:14.660Z,100.00
2023-05-20T03:34:32.916Z,100.00
2023-05-20T03:37:01.723Z,100.00
2023-05-20T03:39:30.174Z,100.00
2023-05-20T03:41:58.007Z,100.00
2023-05-20T03:44:37.335Z,100.00
2023-05-20T03:47:11.089Z,100.00
2023-05-20T03:49:45.384Z,100.00
2023-05-20T03:52:15.238Z,100.00
2023-05-20T03:54:42.495Z,100.00
2023-05-20T03:57:10.693Z,100.00
2023-05-20T03:59:39.641Z,100.00
2023-05-20T04:02:07.189Z,100.00
2023-05-20T04:04:35.592Z,100.00
2023-05-20T04:07:05.530Z,100.00
2023-05-20T04:09:33.016Z,100.00
2023-05-20T04:11:59.991Z,100.00
2023-05-20T04:14:27.049Z,100.00
2023-05-20T04:16:54.555Z,100.00
2023-05-20T04:19:23.817Z,100.00
2023-05-20T04:21:52.590Z,100.00
2023-05-20T04:24:19.754Z,100.00
2023-05-20T04:26:47.227Z,100.00
2023-05-20T04:29:16.435Z,100.00
2023-05-20T04:32:04.890Z,100.00
2023-05-20T04:34:35.234Z,100.00
2023-05-20T04:37:04.315Z,94.13
2023-05-20T04:39:31.335Z,79.36
2023-05-20T04:41:58.472Z,77.31
2023-05-20T04:44:26.679Z,76.64
2023-05-20T04:46:54.591Z,75.39
2023-05-20T04:49:26.897Z,70.95
2023-05-20T04:51:56.110Z,70.08
2023-05-20T04:54:23.462Z,67.63
2023-05-20T04:56:53.732Z,64.60
2023-05-20T04:59:33.615Z,63.78
2023-05-20T05:02:02.969Z,62.45
2023-05-20T05:07:12.986Z,61.31
2023-05-20T05:09:40.403Z,59.20
2023-05-20T05:12:09.321Z,60.95
2023-05-20T05:14:36.776Z,63.60
2023-05-20T05:27:15.921Z,68.18
2023-05-20T05:33:27.997Z,68.78
2023-05-20T05:35:59.655Z,67.46
2023-05-20T05:41:08.344Z,66.48
2023-05-20T05:43:36.015Z,64.44
2023-05-20T05:46:03.417Z,66.98
2023-05-20T05:48:30.355Z,67.17
2023-05-20T05:50:57.206Z,69.94
2023-05-20T05:53:23.994Z,64.54
2023-05-20T05:55:50.950Z,63.31
2023-05-20T05:58:17.886Z,65.99
2023-05-20T06:00:54.905Z,67.57
2023-05-20T06:03:36.960Z,69.45
2023-05-20T06:09:17.401Z,71.51
2023-05-20T06:12:03.934Z,70.41
2023-05-20T06:14:35.165Z,67.50
2023-05-20T06:17:07.341Z,64.84
2023-05-20T06:23:04.749Z,62.23
2023-05-20T06:25:31.573Z,61.09
2023-05-20T06:27:58.769Z,61.03
2023-05-20T06:30:25.625Z,59.90
2023-05-20T06:32:52.805Z,58.53
2023-05-20T06:35:19.709Z,58.46
2023-05-20T06:37:57.374Z,60.32
2023-05-20T06:40:24.335Z,61.16
2023-05-20T06:42:51.404Z,59.08
2023-05-20T06:45:18.281Z,54.67
2023-05-20T06:47:45.810Z,54.53
2023-05-20T06:50:13.441Z,53.35
2023-05-20T06:52:40.365Z,52.98
2023-05-20T06:56:17.364Z,53.14
2023-05-20T06:58:45.385Z,53.00
2023-05-20T07:01:15.957Z,52.62
2023-05-20T07:03:44.726Z,51.76
2023-05-20T07:06:11.857Z,52.65
2023-05-20T07:08:38.791Z,50.84
2023-05-20T07:11:06.145Z,50.25
2023-05-20T07:13:33.397Z,49.53
2023-05-20T07:16:00.241Z,49.04
2023-05-20T07:18:28.548Z,48.99
2023-05-20T07:20:57.101Z,49.02
2023-05-20T07:23:24.488Z,47.99
2023-05-20T07:25:51.753Z,47.16
2023-05-20T07:28:18.808Z,47.36
2023-05-20T07:30:50.142Z,46.42
2023-05-20T07:33:17.935Z,44.95
2023-05-20T07:35:45.779Z,45.07
2023-05-20T07:38:12.863Z,45.86
2023-05-20T07:40:42.617Z,45.38
2023-05-20T07:43:09.648Z,45.23
2023-05-20T07:45:39.511Z,44.55
2023-05-20T07:48:08.944Z,44.31
2023-05-20T07:50:36.889Z,44.54
2023-05-20T07:53:03.738Z,43.90
2023-05-20T07:55:31.368Z,44.72
2023-05-20T07:57:58.327Z,45.27
2023-05-20T08:00:25.379Z,44.88
2023-05-20T08:02:52.487Z,44.79
2023-05-20T08:05:19.535Z,43.85
2023-05-20T08:07:46.893Z,45.94
2023-05-20T08:10:13.860Z,47.76
2023-05-20T08:12:41.251Z,48.80
2023-05-20T08:15:08.677Z,50.14
2023-05-20T08:17:35.905Z,50.00
2023-05-20T08:20:03.167Z,48.15
2023-05-20T08:22:29.961Z,49.70
2023-05-20T08:25:23.825Z,48.77
2023-05-20T08:28:09.234Z,48.91
2023-05-20T08:30:36.661Z,49.26
2023-05-20T08:33:07.035Z,50.68
2023-05-20T08:35:34.296Z,51.48
2023-05-20T08:38:02.236Z,49.63
2023-05-20T08:40:29.314Z,49.75
2023-05-20T08:42:57.771Z,50.22
2023-05-20T08:45:28.833Z,49.46
2023-05-20T08:47:55.892Z,49.43
2023-05-20T08:50:22.683Z,50.76
2023-05-20T08:52:49.685Z,50.00
2023-05-20T08:55:24.668Z,51.01
2023-05-20T08:57:51.643Z,51.00
2023-05-20T09:00:18.736Z,49.63
2023-05-20T09:02:46.367Z,48.82
2023-05-20T09:05:13.990Z,51.26
2023-05-20T09:07:42.894Z,49.31
2023-05-20T09:10:10.053Z,48.54
2023-05-20T09:12:38.665Z,49.72
2023-05-20T09:15:06.528Z,49.50
2023-05-20T09:17:36.465Z,49.86
2023-05-20T09:20:08.850Z,49.23
2023-05-20T09:22:35.875Z,49.15
2023-05-20T09:25:02.613Z,49.72
2023-05-20T09:27:29.329Z,49.42
2023-05-20T09:29:56.123Z,49.74
2023-05-20T09:32:24.424Z,48.83
2023-05-20T09:34:51.286Z,48.60
2023-05-20T09:37:21.783Z,48.79
2023-05-20T09:39:59.691Z,48.38
2023-05-20T09:42:40.280Z,49.25
2023-05-20T09:45:11.557Z,48.60
2023-05-20T09:47:43.483Z,48.01
2023-05-20T09:50:10.307Z,49.29
2023-05-20T09:52:38.779Z,48.56
2023-05-20T09:55:10.801Z,48.75
2023-05-20T09:57:38.195Z,49.11
2023-05-20T10:00:06.793Z,49.15
2023-05-20T10:02:34.452Z,47.63
2023-05-20T10:05:07.741Z,46.67
2023-05-20T10:07:56.817Z,46.97
2023-05-20T10:10:48.541Z,45.28
2023-05-20T10:13:33.794Z,46.95
2023-05-20T10:16:16.540Z,44.93
2023-05-20T10:18:53.091Z,44.69
2023-05-20T10:21:25.178Z,46.53
2023-05-20T10:23:52.500Z,46.27
2023-05-20T10:26:19.584Z,44.42
2023-05-20T10:28:47.514Z,45.04
2023-05-20T10:31:22.329Z,45.80
2023-05-20T10:33:52.617Z,44.08
2023-05-20T10:36:24.112Z,44.28
2023-05-20T10:38:58.212Z,43.04
2023-05-20T10:41:29.587Z,43.74
2023-05-20T10:44:06.679Z,43.27
2023-05-20T10:46:46.409Z,44.98
2023-05-20T10:49:24.062Z,43.46
2023-05-20T10:51:54.369Z,45.06
2023-05-20T10:54:22.928Z,45.72
2023-05-20T10:56:54.040Z,44.33
2023-05-20T10:59:24.644Z,44.30
2023-05-20T11:01:51.818Z,43.61
2023-05-20T11:04:19.837Z,44.05
2023-05-20T11:06:57.207Z,43.87
2023-05-20T11:09:23.953Z,44.56
2023-05-20T11:11:52.802Z,44.23
2023-05-20T11:14:20.285Z,42.51
2023-05-20T11:16:51.183Z,42.95
2023-05-20T11:19:19.131Z,43.37
2023-05-20T11:21:46.612Z,44.54
2023-05-20T11:24:14.134Z,43.85
2023-05-20T11:26:41.337Z,44.93
2023-05-20T11:29:08.512Z,44.71
2023-05-20T11:31:38.887Z,43.51
2023-05-20T11:34:05.620Z,44.23
2023-05-20T11:36:32.477Z,43.46
2023-05-20T11:39:00.055Z,44.50
2023-05-20T11:41:27.957Z,43.93
2023-05-20T11:44:01.555Z,44.51
2023-05-20T11:46:28.783Z,44.48
2023-05-20T11:48:56.328Z,44.58
2023-05-20T11:51:29.950Z,45.30
2023-05-20T11:54:04.253Z,44.65
2023-05-20T11:56:31.882Z,44.80
2023-05-20T11:59:00.475Z,43.79
2023-05-20T12:01:29.748Z,44.11
2023-05-20T12:03:57.205Z,44.12
2023-05-20T12:06:24.244Z,44.46
2023-05-20T12:08:53.761Z,44.38
2023-05-20T12:11:21.971Z,44.63
2023-05-20T12:13:48.738Z,44.51
2023-05-20T12:16:15.699Z,45.60
2023-05-20T12:18:42.595Z,45.03
2023-05-20T12:21:09.733Z,44.27
2023-05-20T12:23:36.487Z,45.21
2023-05-20T12:26:03.414Z,46.28
2023-05-20T12:28:30.275Z,45.41
2023-05-20T12:30:56.848Z,44.59
2023-05-20T12:33:23.739Z,45.39
2023-05-20T12:35:50.795Z,45.72
2023-05-20T12:38:17.498Z,44.79
2023-05-20T12:40:44.609Z,44.70
2023-05-20T12:43:11.382Z,46.56
2023-05-20T12:45:38.312Z,48.49
2023-05-20T12:48:07.261Z,48.35
2023-05-20T12:50:34.392Z,48.99
2023-05-20T12:53:01.332Z,46.31
2023-05-20T12:55:28.117Z,45.29
2023-05-20T12:57:56.454Z,43.93
2023-05-20T13:00:23.252Z,44.35
2023-05-20T13:02:50.153Z,44.95
2023-05-20T13:05:16.937Z,45.33
2023-05-20T13:07:43.868Z,46.12
2023-05-20T13:10:11.496Z,44.09
2023-05-20T13:12:38.428Z,44.58
2023-05-20T13:15:05.631Z,45.31
2023-05-20T13:17:32.593Z,44.87
2023-05-20T13:19:59.411Z,45.17
2023-05-20T13:22:26.331Z,46.21
2023-05-20T13:24:53.107Z,46.58
2023-05-20T13:27:20.053Z,47.50
2023-05-20T13:29:46.675Z,47.18
2023-05-20T13:32:13.368Z,46.56
2023-05-20T13:34:40.200Z,46.49
2023-05-20T13:37:07.086Z,46.40
2023-05-20T13:39:34.280Z,47.25
2023-05-20T13:42:01.163Z,47.96
2023-05-20T13:44:27.899Z,48.06
2023-05-20T13:46:54.612Z,48.72
2023-05-20T13:49:21.669Z,46.57
2023-05-20T13:51:48.447Z,46.39
2023-05-20T13:54:15.188Z,46.89
2023-05-20T13:56:42.678Z,48.92
2023-05-20T13:59:09.333Z,49.23
2023-05-20T14:01:36.655Z,48.76
2023-05-20T14:04:04.503Z,49.07
2023-05-20T14:06:32.079Z,50.87
2023-05-20T14:08:58.781Z,51.00
2023-05-20T14:11:25.708Z,50.89
2023-05-20T14:13:52.340Z,51.03
2023-05-20T14:16:19.277Z,53.38
2023-05-20T14:18:46.075Z,53.63
2023-05-20T14:21:12.829Z,52.84
2023-05-20T14:23:44.884Z,53.67
2023-05-20T14:26:11.576Z,54.46
2023-05-20T14:28:38.510Z,54.24
2023-05-20T14:31:07.444Z,54.01
2023-05-20T14:33:35.625Z,53.10
2023-05-20T14:36:02.577Z,52.34
2023-05-20T14:38:29.231Z,52.31
2023-05-20T14:40:56.037Z,52.05
2023-05-20T14:43:22.976Z,51.58
2023-05-20T14:45:49.819Z,53.39
2023-05-20T14:48:23.103Z,55.60
2023-05-20T14:50:51.652Z,59.08
2023-05-20T14:53:20.266Z,61.43
2023-05-20T14:58:13.923Z,76.92
2023-05-20T15:00:41.548Z,84.25
2023-05-20T15:03:11.945Z,89.89
2023-05-20T15:05:39.718Z,87.62
2023-05-20T15:08:07.536Z,84.01
2023-05-20T15:10:42.381Z,81.86
2023-05-20T15:13:09.824Z,78.27
2023-05-20T15:15:42.378Z,79.57
2023-05-20T15:18:15.872Z,90.43
2023-05-20T15:20:46.107Z,99.93
2023-05-20T15:23:20.309Z,100.00
2023-05-20T15:25:48.728Z,99.48
2023-05-20T15:28:23.181Z,92.97
2023-05-20T15:30:54.770Z,99.76
2023-05-20T15:33:25.386Z,100.00
2023-05-20T15:35:55.464Z,100.00
2023-05-20T15:38:22.618Z,100.00
2023-05-20T15:40:52.657Z,100.00
2023-05-20T15:43:20.006Z,100.00
2023-05-20T15:45:53.522Z,100.00
2023-05-20T15:48:22.280Z,100.00
2023-05-20T15:50:49.145Z,100.00
2023-05-20T15:53:16.147Z,99.23
2023-05-20T15:55:44.817Z,98.23
2023-05-20T15:58:12.145Z,93.99
2023-05-20T16:00:39.153Z,93.14
2023-05-20T16:03:06.198Z,96.42
2023-05-20T16:05:33.640Z,100.00
2023-05-20T16:10:33.158Z,100.00
2023-05-20T16:13:01.958Z,100.00
2023-05-20T16:15:36.432Z,100.00
2023-05-20T16:18:07.062Z,100.00
2023-05-20T16:30:24.264Z,99.91
2023-05-20T16:32:51.953Z,99.83
2023-05-20T16:35:18.721Z,100.00
2023-05-20T16:37:49.582Z,99.33
2023-05-20T16:40:16.479Z,97.20
2023-05-20T16:42:44.827Z,88.28
2023-05-20T16:45:12.402Z,90.47
2023-05-20T16:47:39.697Z,88.75
2023-05-20T16:50:07.467Z,85.06
2023-05-20T16:52:35.333Z,82.54
2023-05-20T16:55:04.110Z,83.86
2023-05-20T16:57:31.247Z,87.45
2023-05-20T16:59:58.855Z,93.25
2023-05-20T17:02:29.549Z,95.45
2023-05-20T17:04:57.155Z,96.35
2023-05-20T17:07:24.002Z,99.06
2023-05-20T17:09:53.209Z,100.00
2023-05-20T17:12:20.814Z,100.00
2023-05-20T17:14:48.317Z,100.00
2023-05-20T17:17:15.970Z,100.00
2023-05-20T17:19:43.074Z,100.00
2023-05-20T17:22:09.979Z,100.00
2023-05-20T17:24:36.994Z,100.00
2023-05-20T17:27:06.878Z,100.00
2023-05-20T17:29:36.309Z,100.00
2023-05-20T17:32:03.662Z,100.00
2023-05-20T17:34:31.656Z,100.00
2023-05-20T17:42:12.677Z,100.00
2023-05-20T17:44:40.005Z,100.00
2023-05-20T17:47:08.190Z,100.00
2023-05-20T17:49:37.951Z,100.00
2023-05-20T17:52:06.500Z,100.00
2023-05-20T17:54:33.471Z,100.00
2023-05-20T17:57:00.492Z,100.00
2023-05-20T17:59:27.384Z,100.00
2023-05-20T18:01:56.144Z,100.00
2023-05-20T18:04:23.406Z,100.00
2023-05-20T18:06:50.354Z,100.00
2023-05-20T18:09:17.743Z,100.00
2023-05-20T18:11:47.254Z,100.00
2023-05-20T18:14:14.020Z,100.00
2023-05-20T18:16:41.233Z,100.00
2023-05-20T18:19:08.134Z,100.00
2023-05-20T18:21:35.688Z,100.00
2023-05-20T18:24:11.375Z,91.81
2023-05-20T18:26:42.393Z,91.74
2023-05-20T18:29:15.223Z,94.64
2023-05-20T18:31:47.525Z,94.92
2023-05-20T18:34:16.708Z,96.72
2023-05-20T18:36:44.781Z,97.29
2023-05-20T18:39:14.890Z,95.80
2023-05-20T18:44:19.785Z,98.49
2023-05-20T18:46:54.559Z,96.22
2023-05-20T18:49:21.771Z,97.21
2023-05-20T18:51:51.282Z,100.00
2023-05-20T18:56:54.331Z,100.00
2023-05-20T18:59:24.523Z,100.00
2023-05-20T19:01:52.233Z,100.00
2023-05-20T19:04:19.049Z,100.00
2023-05-20T19:06:55.246Z,100.00
2023-05-20T19:12:13.532Z,100.00
2023-05-20T19:53:08.672Z,100.00
2023-05-20T19:55:36.742Z,100.00
2023-05-20T19:58:20.503Z,100.00
2023-05-20T20:00:47.397Z,100.00
2023-05-20T20:03:17.330Z,100.00
2023-05-20T20:05:44.288Z,100.00
2023-05-20T20:08:11.532Z,100.00
2023-05-20T20:10:38.506Z,100.00
2023-05-20T20:13:05.798Z,100.00
2023-05-20T20:15:33.375Z,100.00
2023-05-20T20:18:02.698Z,100.00
2023-05-20T20:20:40.004Z,100.00
2023-05-20T20:23:08.162Z,100.00
2023-05-20T20:25:41.223Z,100.00
2023-05-20T20:28:09.554Z,100.00
2023-05-20T20:30:36.745Z,100.00
2023-05-20T20:33:10.002Z,100.00
2023-05-20T20:35:37.941Z,100.00
2023-05-20T20:38:09.780Z,100.00
2023-05-20T20:40:42.655Z,100.00
2023-05-20T20:43:11.459Z,100.00
2023-05-20T20:45:43.496Z,100.00
2023-05-20T20:48:10.575Z,100.00
2023-05-20T20:50:37.387Z,100.00
2023-05-20T20:53:04.728Z,100.00
2023-05-20T20:55:32.073Z,100.00
2023-05-20T20:58:02.833Z,100.00
2023-05-20T21:00:29.873Z,100.00
2023-05-20T21:02:57.803Z,100.00
2023-05-20T21:05:26.709Z,100.00
2023-05-20T21:07:58.470Z,100.00
2023-05-20T21:10:29.859Z,100.00
2023-05-20T21:13:00.181Z,100.00
2023-05-20T21:15:30.929Z,100.00
2023-05-20T21:18:05.096Z,100.00
2023-05-20T21:20:35.928Z,100.00
2023-05-20T21:23:06.570Z,100.00
2023-05-20T21:25:41.956Z,100.00
2023-05-20T21:28:10.071Z,100.00
2023-05-20T21:30:37.411Z,100.00
2023-05-20T21:33:04.731Z,100.00
2023-05-20T21:35:31.712Z,100.00
2023-05-20T21:37:58.863Z,100.00
2023-05-20T21:40:25.930Z,100.00
2023-05-20T21:42:54.006Z,100.00
2023-05-20T21:45:21.225Z,100.00
2023-05-20T21:47:48.445Z,100.00
2023-05-20T21:50:15.682Z,100.00
2023-05-20T21:52:42.929Z,100.00
2023-05-20T21:55:10.704Z,100.00
2023-05-20T21:57:38.745Z,100.00
2023-05-20T22:00:15.514Z,100.00
2023-05-20T22:02:42.532Z,100.00
2023-05-20T22:05:12.890Z,100.00
2023-05-20T22:07:48.106Z,100.00
2023-05-20T22:10:17.602Z,100.00
2023-05-20T22:12:45.194Z,100.00
2023-05-20T22:15:12.405Z,100.00
2023-05-20T22:17:40.033Z,100.00
2023-05-20T22:20:08.480Z,100.00
2023-05-20T22:22:39.281Z,100.00
2023-05-20T22:25:07.507Z,100.00
2023-05-20T22:27:35.122Z,100.00
2023-05-20T22:30:02.480Z,100.00
2023-05-20T22:32:29.111Z,100.00
2023-05-20T22:34:58.524Z,100.00
2023-05-20T22:37:26.916Z,100.00
2023-05-20T22:39:53.602Z,100.00
2023-05-20T22:42:20.538Z,100.00
2023-05-20T22:44:47.282Z,100.00
2023-05-20T22:47:13.972Z,100.00
2023-05-20T22:49:42.374Z,100.00
2023-05-20T22:52:09.062Z,100.00
2023-05-20T22:54:36.153Z,100.00
2023-05-20T22:57:02.929Z,100.00
2023-05-20T22:59:32.911Z,100.00
2023-05-20T23:01:59.666Z,100.00
2023-05-20T23:04:26.560Z,100.00
2023-05-20T23:06:54.171Z,100.00
2023-05-20T23:09:21.127Z,100.00
2023-05-20T23:11:48.001Z,100.00
2023-05-20T23:14:14.837Z,100.00
2023-05-20T23:16:43.243Z,100.00
2023-05-20T23:19:10.614Z,100.00
2023-05-20T23:21:37.685Z,100.00
2023-05-20T23:24:05.144Z,100.00
2023-05-20T23:26:36.776Z,100.00
2023-05-20T23:29:05.012Z,100.00
2023-05-20T23:31:34.657Z,100.00
2023-05-20T23:34:03.852Z,100.00
2023-05-20T23:36:34.699Z,100.00
2023-05-20T23:39:02.634Z,100.00
2023-05-20T23:41:29.644Z,100.00
2023-05-20T23:43:56.851Z,100.00
2023-05-20T23:46:23.902Z,100.00
2023-05-20T23:48:50.969Z,100.00
2023-05-20T23:51:18.270Z,100.00
2023-05-20T23:53:45.209Z,100.00
2023-05-20T23:56:12.076Z,100.00
2023-05-20T23:58:39.150Z,100.00
